sensor_id;sensor_type;location;lat;lon;timestamp;P1;durP1;ratioP1;P2;durP2;ratioP2
15996;SDS011;8103;51.340;12.326;2024-03-08T00:01:05;28.48;;;19.80;;
15996;SDS011;8103;51.340;12.326;2024-03-08T00:03:33;25.17;;;17.80;;
15996;SDS011;8103;51.340;12.326;2024-03-08T00:06:00;27.88;;;18.02;;
15996;SDS011;8103;51.340;12.326;2024-03-08T00:08:26;27.85;;;18.10;;
15996;SDS011;8103;51.340;12.326;2024-03-08T00:10:53;26.27;;;17.75;;
15996;SDS011;8103;51.340;12.326;2024-03-08T00:13:20;26.13;;;18.13;;
15996;SDS011;8103;51.340;12.326;2024-03-08T00:15:46;28.75;;;17.33;;
15996;SDS011;8103;51.340;12.326;2024-03-08T00:18:13;22.42;;;17.33;;
15996;SDS011;8103;51.340;12.326;2024-03-08T00:20:40;25.40;;;17.15;;
15996;SDS011;8103;51.340;12.326;2024-03-08T00:23:07;29.95;;;19.77;;
15996;SDS011;8103;51.340;12.326;2024-03-08T00:25:34;29.60;;;19.85;;
15996;SDS011;8103;51.340;12.326;2024-03-08T00:28:02;26.90;;;18.70;;
15996;SDS011;8103;51.340;12.326;2024-03-08T00:30:30;29.23;;;18.08;;
15996;SDS011;8103;51.340;12.326;2024-03-08T00:32:57;25.10;;;17.30;;
15996;SDS011;8103;51.340;12.326;2024-03-08T00:35:24;26.58;;;18.23;;
15996;SDS011;8103;51.340;12.326;2024-03-08T00:37:50;29.35;;;19.08;;
15996;SDS011;8103;51.340;12.326;2024-03-08T00:40:17;27.80;;;18.58;;
15996;SDS011;8103;51.340;12.326;2024-03-08T00:42:44;28.50;;;18.85;;
15996;SDS011;8103;51.340;12.326;2024-03-08T00:45:11;28.25;;;16.95;;
15996;SDS011;8103;51.340;12.326;2024-03-08T00:47:38;23.02;;;17.13;;
15996;SDS011;8103;51.340;12.326;2024-03-08T00:50:05;26.33;;;18.45;;
15996;SDS011;8103;51.340;12.326;2024-03-08T00:52:34;26.70;;;18.00;;
15996;SDS011;8103;51.340;12.326;2024-03-08T00:55:01;29.23;;;17.33;;
15996;SDS011;8103;51.340;12.326;2024-03-08T00:57:28;27.67;;;18.38;;
15996;SDS011;8103;51.340;12.326;2024-03-08T00:59:55;32.45;;;20.20;;
15996;SDS011;8103;51.340;12.326;2024-03-08T01:02:22;28.45;;;17.25;;
15996;SDS011;8103;51.340;12.326;2024-03-08T01:04:49;28.80;;;17.55;;
15996;SDS011;8103;51.340;12.326;2024-03-08T01:07:16;30.77;;;17.88;;
15996;SDS011;8103;51.340;12.326;2024-03-08T01:09:43;25.88;;;16.92;;
15996;SDS011;8103;51.340;12.326;2024-03-08T01:12:09;27.17;;;18.50;;
15996;SDS011;8103;51.340;12.326;2024-03-08T01:14:36;27.33;;;16.98;;
15996;SDS011;8103;51.340;12.326;2024-03-08T01:17:03;27.77;;;17.45;;
15996;SDS011;8103;51.340;12.326;2024-03-08T01:19:30;27.48;;;18.42;;
15996;SDS011;8103;51.340;12.326;2024-03-08T01:21:58;28.40;;;19.77;;
15996;SDS011;8103;51.340;12.326;2024-03-08T01:24:25;31.45;;;19.55;;
15996;SDS011;8103;51.340;12.326;2024-03-08T01:26:51;24.77;;;17.35;;
15996;SDS011;8103;51.340;12.326;2024-03-08T01:29:18;27.73;;;18.98;;
15996;SDS011;8103;51.340;12.326;2024-03-08T01:31:45;27.52;;;18.73;;
15996;SDS011;8103;51.340;12.326;2024-03-08T01:34:11;29.30;;;19.20;;
15996;SDS011;8103;51.340;12.326;2024-03-08T01:36:38;26.80;;;18.25;;
15996;SDS011;8103;51.340;12.326;2024-03-08T01:39:04;28.38;;;18.48;;
15996;SDS011;8103;51.340;12.326;2024-03-08T01:41:34;26.73;;;18.52;;
15996;SDS011;8103;51.340;12.326;2024-03-08T01:44:02;28.98;;;17.63;;
15996;SDS011;8103;51.340;12.326;2024-03-08T01:46:29;26.15;;;17.58;;
15996;SDS011;8103;51.340;12.326;2024-03-08T01:49:02;34.40;;;19.23;;
15996;SDS011;8103;51.340;12.326;2024-03-08T01:51:29;31.52;;;20.15;;
15996;SDS011;8103;51.340;12.326;2024-03-08T01:53:57;29.00;;;18.80;;
15996;SDS011;8103;51.340;12.326;2024-03-08T01:56:25;30.75;;;18.75;;
15996;SDS011;8103;51.340;12.326;2024-03-08T01:58:52;32.25;;;18.42;;
15996;SDS011;8103;51.340;12.326;2024-03-08T02:01:20;27.92;;;18.45;;
15996;SDS011;8103;51.340;12.326;2024-03-08T02:03:47;32.38;;;19.00;;
15996;SDS011;8103;51.340;12.326;2024-03-08T02:06:13;28.58;;;19.08;;
15996;SDS011;8103;51.340;12.326;2024-03-08T02:08:42;30.20;;;19.83;;
15996;SDS011;8103;51.340;12.326;2024-03-08T02:11:10;28.60;;;18.15;;
15996;SDS011;8103;51.340;12.326;2024-03-08T02:13:38;25.33;;;17.85;;
15996;SDS011;8103;51.340;12.326;2024-03-08T02:16:04;32.40;;;20.58;;
15996;SDS011;8103;51.340;12.326;2024-03-08T02:18:34;25.52;;;18.98;;
15996;SDS011;8103;51.340;12.326;2024-03-08T02:21:02;32.95;;;19.73;;
15996;SDS011;8103;51.340;12.326;2024-03-08T02:23:30;28.02;;;18.55;;
15996;SDS011;8103;51.340;12.326;2024-03-08T02:25:58;27.48;;;17.88;;
15996;SDS011;8103;51.340;12.326;2024-03-08T02:28:25;28.30;;;19.00;;
15996;SDS011;8103;51.340;12.326;2024-03-08T02:30:52;30.35;;;17.75;;
15996;SDS011;8103;51.340;12.326;2024-03-08T02:33:25;25.98;;;16.95;;
15996;SDS011;8103;51.340;12.326;2024-03-08T02:35:53;25.73;;;18.27;;
15996;SDS011;8103;51.340;12.326;2024-03-08T02:38:20;26.77;;;19.13;;
15996;SDS011;8103;51.340;12.326;2024-03-08T02:40:49;30.35;;;18.33;;
15996;SDS011;8103;51.340;12.326;2024-03-08T02:43:17;27.67;;;17.98;;
15996;SDS011;8103;51.340;12.326;2024-03-08T02:45:46;30.08;;;18.90;;
15996;SDS011;8103;51.340;12.326;2024-03-08T02:48:13;31.98;;;19.33;;
15996;SDS011;8103;51.340;12.326;2024-03-08T02:50:41;29.85;;;19.40;;
15996;SDS011;8103;51.340;12.326;2024-03-08T02:53:11;25.33;;;17.38;;
15996;SDS011;8103;51.340;12.326;2024-03-08T02:55:38;27.50;;;18.13;;
15996;SDS011;8103;51.340;12.326;2024-03-08T02:58:07;25.83;;;17.92;;
15996;SDS011;8103;51.340;12.326;2024-03-08T03:00:37;30.40;;;18.90;;
15996;SDS011;8103;51.340;12.326;2024-03-08T03:03:07;27.60;;;18.13;;
15996;SDS011;8103;51.340;12.326;2024-03-08T03:05:34;31.52;;;18.65;;
15996;SDS011;8103;51.340;12.326;2024-03-08T03:08:01;29.88;;;18.13;;
15996;SDS011;8103;51.340;12.326;2024-03-08T03:10:30;26.48;;;17.98;;
15996;SDS011;8103;51.340;12.326;2024-03-08T03:12:57;26.08;;;18.27;;
15996;SDS011;8103;51.340;12.326;2024-03-08T03:15:24;26.92;;;18.08;;
15996;SDS011;8103;51.340;12.326;2024-03-08T03:17:53;24.60;;;16.73;;
15996;SDS011;8103;51.340;12.326;2024-03-08T03:20:19;30.10;;;18.33;;
15996;SDS011;8103;51.340;12.326;2024-03-08T03:22:52;25.35;;;17.40;;
15996;SDS011;8103;51.340;12.326;2024-03-08T03:25:19;30.35;;;18.83;;
15996;SDS011;8103;51.340;12.326;2024-03-08T03:27:54;28.50;;;18.55;;
15996;SDS011;8103;51.340;12.326;2024-03-08T03:30:24;29.02;;;19.40;;
15996;SDS011;8103;51.340;12.326;2024-03-08T03:32:53;26.75;;;17.13;;
15996;SDS011;8103;51.340;12.326;2024-03-08T03:35:27;28.15;;;18.08;;
15996;SDS011;8103;51.340;12.326;2024-03-08T03:37:55;27.85;;;18.58;;
15996;SDS011;8103;51.340;12.326;2024-03-08T03:40:28;28.13;;;18.65;;
15996;SDS011;8103;51.340;12.326;2024-03-08T03:42:55;32.53;;;19.13;;
15996;SDS011;8103;51.340;12.326;2024-03-08T03:45:22;25.80;;;16.80;;
15996;SDS011;8103;51.340;12.326;2024-03-08T03:47:49;29.13;;;17.70;;
15996;SDS011;8103;51.340;12.326;2024-03-08T03:50:18;26.25;;;17.67;;
15996;SDS011;8103;51.340;12.326;2024-03-08T03:52:48;28.85;;;18.90;;
15996;SDS011;8103;51.340;12.326;2024-03-08T03:55:15;31.10;;;18.02;;
15996;SDS011;8103;51.340;12.326;2024-03-08T03:57:41;28.83;;;18.90;;
15996;SDS011;8103;51.340;12.326;2024-03-08T04:00:08;25.83;;;17.25;;
15996;SDS011;8103;51.340;12.326;2024-03-08T04:02:38;30.23;;;19.33;;
15996;SDS011;8103;51.340;12.326;2024-03-08T04:05:05;27.02;;;18.38;;
15996;SDS011;8103;51.340;12.326;2024-03-08T04:07:33;28.23;;;18.15;;
15996;SDS011;8103;51.340;12.326;2024-03-08T04:10:01;28.08;;;18.27;;
15996;SDS011;8103;51.340;12.326;2024-03-08T04:12:28;29.08;;;18.80;;
15996;SDS011;8103;51.340;12.326;2024-03-08T04:14:56;31.15;;;18.55;;
15996;SDS011;8103;51.340;12.326;2024-03-08T04:17:22;26.67;;;17.33;;
15996;SDS011;8103;51.340;12.326;2024-03-08T04:19:50;23.23;;;17.23;;
15996;SDS011;8103;51.340;12.326;2024-03-08T04:22:17;28.23;;;18.42;;
15996;SDS011;8103;51.340;12.326;2024-03-08T04:24:44;32.65;;;18.70;;
15996;SDS011;8103;51.340;12.326;2024-03-08T04:27:12;28.30;;;18.25;;
15996;SDS011;8103;51.340;12.326;2024-03-08T04:29:40;32.30;;;18.38;;
15996;SDS011;8103;51.340;12.326;2024-03-08T04:32:08;29.17;;;18.00;;
15996;SDS011;8103;51.340;12.326;2024-03-08T04:34:36;33.38;;;18.05;;
15996;SDS011;8103;51.340;12.326;2024-03-08T04:37:03;28.05;;;17.77;;
15996;SDS011;8103;51.340;12.326;2024-03-08T04:39:33;27.73;;;17.50;;
15996;SDS011;8103;51.340;12.326;2024-03-08T04:42:01;32.58;;;18.23;;
15996;SDS011;8103;51.340;12.326;2024-03-08T04:44:31;29.65;;;18.40;;
15996;SDS011;8103;51.340;12.326;2024-03-08T04:46:58;31.02;;;19.13;;
15996;SDS011;8103;51.340;12.326;2024-03-08T04:49:24;27.48;;;17.52;;
15996;SDS011;8103;51.340;12.326;2024-03-08T04:51:51;26.52;;;17.67;;
15996;SDS011;8103;51.340;12.326;2024-03-08T04:54:18;29.00;;;19.00;;
15996;SDS011;8103;51.340;12.326;2024-03-08T04:56:45;28.35;;;17.92;;
15996;SDS011;8103;51.340;12.326;2024-03-08T04:59:12;26.60;;;17.83;;
15996;SDS011;8103;51.340;12.326;2024-03-08T05:01:40;30.48;;;18.30;;
15996;SDS011;8103;51.340;12.326;2024-03-08T05:04:06;34.88;;;20.05;;
15996;SDS011;8103;51.340;12.326;2024-03-08T05:06:35;31.00;;;18.95;;
15996;SDS011;8103;51.340;12.326;2024-03-08T05:09:02;31.67;;;21.17;;
15996;SDS011;8103;51.340;12.326;2024-03-08T05:11:40;33.53;;;17.95;;
15996;SDS011;8103;51.340;12.326;2024-03-08T05:14:07;27.33;;;17.65;;
15996;SDS011;8103;51.340;12.326;2024-03-08T05:16:34;31.52;;;18.50;;
15996;SDS011;8103;51.340;12.326;2024-03-08T05:19:02;29.70;;;20.05;;
15996;SDS011;8103;51.340;12.326;2024-03-08T05:21:29;28.80;;;19.52;;
15996;SDS011;8103;51.340;12.326;2024-03-08T05:23:55;31.65;;;18.60;;
15996;SDS011;8103;51.340;12.326;2024-03-08T05:26:22;28.10;;;18.83;;
15996;SDS011;8103;51.340;12.326;2024-03-08T05:28:49;29.80;;;18.02;;
15996;SDS011;8103;51.340;12.326;2024-03-08T05:31:22;31.48;;;17.65;;
15996;SDS011;8103;51.340;12.326;2024-03-08T05:33:49;32.60;;;20.98;;
15996;SDS011;8103;51.340;12.326;2024-03-08T05:36:16;30.95;;;19.30;;
15996;SDS011;8103;51.340;12.326;2024-03-08T05:38:43;30.25;;;18.83;;
15996;SDS011;8103;51.340;12.326;2024-03-08T05:41:10;26.65;;;18.17;;
15996;SDS011;8103;51.340;12.326;2024-03-08T05:43:38;31.30;;;19.60;;
15996;SDS011;8103;51.340;12.326;2024-03-08T05:46:06;32.20;;;19.50;;
15996;SDS011;8103;51.340;12.326;2024-03-08T05:48:33;28.70;;;19.00;;
15996;SDS011;8103;51.340;12.326;2024-03-08T05:51:00;30.38;;;18.48;;
15996;SDS011;8103;51.340;12.326;2024-03-08T05:53:28;30.75;;;20.65;;
15996;SDS011;8103;51.340;12.326;2024-03-08T05:55:58;29.90;;;18.02;;
15996;SDS011;8103;51.340;12.326;2024-03-08T05:58:25;27.83;;;18.85;;
15996;SDS011;8103;51.340;12.326;2024-03-08T06:00:52;28.60;;;18.20;;
15996;SDS011;8103;51.340;12.326;2024-03-08T06:03:19;30.35;;;18.80;;
15996;SDS011;8103;51.340;12.326;2024-03-08T06:05:48;37.47;;;19.95;;
15996;SDS011;8103;51.340;12.326;2024-03-08T06:08:15;37.85;;;21.02;;
15996;SDS011;8103;51.340;12.326;2024-03-08T06:10:42;29.50;;;19.77;;
15996;SDS011;8103;51.340;12.326;2024-03-08T06:13:09;31.75;;;20.65;;
15996;SDS011;8103;51.340;12.326;2024-03-08T06:15:38;28.00;;;19.77;;
15996;SDS011;8103;51.340;12.326;2024-03-08T06:18:05;32.63;;;20.10;;
15996;SDS011;8103;51.340;12.326;2024-03-08T06:20:33;31.50;;;20.80;;
15996;SDS011;8103;51.340;12.326;2024-03-08T06:23:00;30.90;;;19.52;;
15996;SDS011;8103;51.340;12.326;2024-03-08T06:25:27;33.00;;;20.33;;
15996;SDS011;8103;51.340;12.326;2024-03-08T06:27:54;34.33;;;20.20;;
15996;SDS011;8103;51.340;12.326;2024-03-08T06:30:21;32.65;;;20.63;;
15996;SDS011;8103;51.340;12.326;2024-03-08T06:32:48;31.45;;;19.98;;
15996;SDS011;8103;51.340;12.326;2024-03-08T06:35:15;27.58;;;19.20;;
15996;SDS011;8103;51.340;12.326;2024-03-08T06:37:42;33.08;;;19.38;;
15996;SDS011;8103;51.340;12.326;2024-03-08T06:40:10;32.03;;;20.00;;
15996;SDS011;8103;51.340;12.326;2024-03-08T06:42:40;30.48;;;19.05;;
15996;SDS011;8103;51.340;12.326;2024-03-08T06:45:07;34.33;;;21.40;;
15996;SDS011;8103;51.340;12.326;2024-03-08T06:47:35;34.88;;;21.17;;
15996;SDS011;8103;51.340;12.326;2024-03-08T06:50:03;36.08;;;21.17;;
15996;SDS011;8103;51.340;12.326;2024-03-08T06:52:30;31.77;;;20.95;;
15996;SDS011;8103;51.340;12.326;2024-03-08T06:54:57;34.90;;;23.55;;
15996;SDS011;8103;51.340;12.326;2024-03-08T06:57:24;31.75;;;20.65;;
15996;SDS011;8103;51.340;12.326;2024-03-08T06:59:50;28.48;;;18.48;;
15996;SDS011;8103;51.340;12.326;2024-03-08T07:02:18;31.48;;;19.63;;
15996;SDS011;8103;51.340;12.326;2024-03-08T07:04:45;31.50;;;19.50;;
15996;SDS011;8103;51.340;12.326;2024-03-08T07:07:12;29.23;;;19.40;;
15996;SDS011;8103;51.340;12.326;2024-03-08T07:09:38;32.90;;;21.50;;
15996;SDS011;8103;51.340;12.326;2024-03-08T07:12:05;31.10;;;20.08;;
15996;SDS011;8103;51.340;12.326;2024-03-08T07:14:32;40.33;;;21.40;;
15996;SDS011;8103;51.340;12.326;2024-03-08T07:16:59;32.13;;;20.55;;
15996;SDS011;8103;51.340;12.326;2024-03-08T07:19:27;25.67;;;18.33;;
15996;SDS011;8103;51.340;12.326;2024-03-08T07:21:53;24.83;;;18.00;;
15996;SDS011;8103;51.340;12.326;2024-03-08T07:24:21;31.95;;;20.48;;
15996;SDS011;8103;51.340;12.326;2024-03-08T07:27:04;31.25;;;18.42;;
15996;SDS011;8103;51.340;12.326;2024-03-08T07:29:32;29.00;;;19.70;;
15996;SDS011;8103;51.340;12.326;2024-03-08T07:32:00;31.55;;;18.40;;
15996;SDS011;8103;51.340;12.326;2024-03-08T07:34:26;35.55;;;19.00;;
15996;SDS011;8103;51.340;12.326;2024-03-08T07:36:53;32.92;;;20.52;;
15996;SDS011;8103;51.340;12.326;2024-03-08T07:39:22;32.35;;;20.17;;
15996;SDS011;8103;51.340;12.326;2024-03-08T07:41:49;32.15;;;19.33;;
15996;SDS011;8103;51.340;12.326;2024-03-08T07:44:18;28.30;;;18.95;;
15996;SDS011;8103;51.340;12.326;2024-03-08T07:46:45;29.67;;;19.42;;
15996;SDS011;8103;51.340;12.326;2024-03-08T07:49:12;32.20;;;20.83;;
15996;SDS011;8103;51.340;12.326;2024-03-08T07:51:40;33.08;;;21.35;;
15996;SDS011;8103;51.340;12.326;2024-03-08T07:54:07;28.58;;;20.00;;
15996;SDS011;8103;51.340;12.326;2024-03-08T07:56:35;31.33;;;19.02;;
15996;SDS011;8103;51.340;12.326;2024-03-08T07:59:04;27.67;;;18.92;;
15996;SDS011;8103;51.340;12.326;2024-03-08T08:01:30;30.30;;;20.50;;
15996;SDS011;8103;51.340;12.326;2024-03-08T08:03:57;30.75;;;20.27;;
15996;SDS011;8103;51.340;12.326;2024-03-08T08:06:24;29.70;;;20.27;;
15996;SDS011;8103;51.340;12.326;2024-03-08T08:08:51;28.05;;;17.75;;
15996;SDS011;8103;51.340;12.326;2024-03-08T08:11:18;27.08;;;17.35;;
15996;SDS011;8103;51.340;12.326;2024-03-08T08:13:46;26.90;;;17.67;;
15996;SDS011;8103;51.340;12.326;2024-03-08T08:16:13;27.83;;;18.85;;
15996;SDS011;8103;51.340;12.326;2024-03-08T08:18:39;29.08;;;18.88;;
15996;SDS011;8103;51.340;12.326;2024-03-08T08:21:07;29.33;;;19.35;;
15996;SDS011;8103;51.340;12.326;2024-03-08T08:23:33;29.48;;;19.27;;
15996;SDS011;8103;51.340;12.326;2024-03-08T08:26:00;29.75;;;19.05;;
15996;SDS011;8103;51.340;12.326;2024-03-08T08:28:29;25.23;;;17.85;;
15996;SDS011;8103;51.340;12.326;2024-03-08T08:30:57;26.98;;;19.60;;
15996;SDS011;8103;51.340;12.326;2024-03-08T08:33:23;31.67;;;19.77;;
15996;SDS011;8103;51.340;12.326;2024-03-08T08:35:51;30.65;;;20.50;;
15996;SDS011;8103;51.340;12.326;2024-03-08T08:38:20;33.47;;;20.65;;
15996;SDS011;8103;51.340;12.326;2024-03-08T08:40:46;29.30;;;18.13;;
15996;SDS011;8103;51.340;12.326;2024-03-08T08:43:13;28.80;;;17.90;;
15996;SDS011;8103;51.340;12.326;2024-03-08T08:45:40;25.42;;;18.85;;
15996;SDS011;8103;51.340;12.326;2024-03-08T08:48:08;28.15;;;18.67;;
15996;SDS011;8103;51.340;12.326;2024-03-08T08:50:36;24.05;;;17.77;;
15996;SDS011;8103;51.340;12.326;2024-03-08T08:53:04;24.80;;;17.52;;
15996;SDS011;8103;51.340;12.326;2024-03-08T08:55:33;26.08;;;17.88;;
15996;SDS011;8103;51.340;12.326;2024-03-08T08:58:01;28.58;;;19.02;;
15996;SDS011;8103;51.340;12.326;2024-03-08T09:00:29;28.27;;;18.77;;
15996;SDS011;8103;51.340;12.326;2024-03-08T09:02:57;27.98;;;18.50;;
15996;SDS011;8103;51.340;12.326;2024-03-08T09:05:24;28.90;;;19.50;;
15996;SDS011;8103;51.340;12.326;2024-03-08T09:07:51;26.98;;;18.52;;
15996;SDS011;8103;51.340;12.326;2024-03-08T09:10:19;23.60;;;18.15;;
15996;SDS011;8103;51.340;12.326;2024-03-08T09:12:46;28.50;;;19.17;;
15996;SDS011;8103;51.340;12.326;2024-03-08T09:15:13;24.33;;;17.65;;
15996;SDS011;8103;51.340;12.326;2024-03-08T09:17:40;29.92;;;19.77;;
15996;SDS011;8103;51.340;12.326;2024-03-08T09:20:07;29.77;;;18.95;;
15996;SDS011;8103;51.340;12.326;2024-03-08T09:22:35;25.75;;;17.65;;
15996;SDS011;8103;51.340;12.326;2024-03-08T09:25:02;23.67;;;17.08;;
15996;SDS011;8103;51.340;12.326;2024-03-08T09:27:31;23.25;;;14.93;;
15996;SDS011;8103;51.340;12.326;2024-03-08T09:29:58;21.48;;;14.25;;
15996;SDS011;8103;51.340;12.326;2024-03-08T09:32:25;21.13;;;14.45;;
15996;SDS011;8103;51.340;12.326;2024-03-08T09:34:52;22.15;;;16.63;;
15996;SDS011;8103;51.340;12.326;2024-03-08T09:37:19;17.98;;;13.25;;
15996;SDS011;8103;51.340;12.326;2024-03-08T09:39:46;20.77;;;15.25;;
15996;SDS011;8103;51.340;12.326;2024-03-08T09:42:13;22.38;;;15.82;;
15996;SDS011;8103;51.340;12.326;2024-03-08T09:44:45;19.98;;;15.38;;
15996;SDS011;8103;51.340;12.326;2024-03-08T09:47:15;19.90;;;16.10;;
15996;SDS011;8103;51.340;12.326;2024-03-08T09:49:43;20.25;;;15.45;;
15996;SDS011;8103;51.340;12.326;2024-03-08T09:52:12;22.20;;;16.02;;
15996;SDS011;8103;51.340;12.326;2024-03-08T09:54:40;19.88;;;15.43;;
15996;SDS011;8103;51.340;12.326;2024-03-08T09:57:10;23.77;;;17.65;;
15996;SDS011;8103;51.340;12.326;2024-03-08T09:59:37;22.08;;;17.63;;
15996;SDS011;8103;51.340;12.326;2024-03-08T10:02:03;19.73;;;15.75;;
15996;SDS011;8103;51.340;12.326;2024-03-08T10:04:31;18.23;;;16.33;;
15996;SDS011;8103;51.340;12.326;2024-03-08T10:07:00;21.23;;;18.77;;
15996;SDS011;8103;51.340;12.326;2024-03-08T10:09:27;20.33;;;15.77;;
15996;SDS011;8103;51.340;12.326;2024-03-08T10:11:57;20.23;;;17.63;;
15996;SDS011;8103;51.340;12.326;2024-03-08T10:14:25;18.85;;;16.85;;
15996;SDS011;8103;51.340;12.326;2024-03-08T10:16:54;23.27;;;17.52;;
15996;SDS011;8103;51.340;12.326;2024-03-08T10:19:26;21.48;;;16.48;;
15996;SDS011;8103;51.340;12.326;2024-03-08T10:21:56;19.58;;;16.15;;
15996;SDS011;8103;51.340;12.326;2024-03-08T10:24:24;16.73;;;14.93;;
15996;SDS011;8103;51.340;12.326;2024-03-08T10:26:52;17.63;;;15.82;;
15996;SDS011;8103;51.340;12.326;2024-03-08T10:29:20;21.55;;;16.70;;
15996;SDS011;8103;51.340;12.326;2024-03-08T10:31:47;18.65;;;16.65;;
15996;SDS011;8103;51.340;12.326;2024-03-08T10:34:13;21.45;;;19.15;;
15996;SDS011;8103;51.340;12.326;2024-03-08T10:36:40;19.65;;;17.52;;
15996;SDS011;8103;51.340;12.326;2024-03-08T10:39:11;19.10;;;16.83;;
15996;SDS011;8103;51.340;12.326;2024-03-08T10:41:58;17.95;;;16.15;;
15996;SDS011;8103;51.340;12.326;2024-03-08T10:49:30;16.52;;;13.98;;
15996;SDS011;8103;51.340;12.326;2024-03-08T10:52:04;18.17;;;15.55;;
15996;SDS011;8103;51.340;12.326;2024-03-08T10:54:36;18.05;;;15.45;;
15996;SDS011;8103;51.340;12.326;2024-03-08T10:57:09;17.52;;;15.73;;
15996;SDS011;8103;51.340;12.326;2024-03-08T10:59:39;15.77;;;14.20;;
15996;SDS011;8103;51.340;12.326;2024-03-08T11:02:06;18.63;;;16.23;;
15996;SDS011;8103;51.340;12.326;2024-03-08T11:04:33;17.33;;;15.73;;
15996;SDS011;8103;51.340;12.326;2024-03-08T11:07:03;18.27;;;16.10;;
15996;SDS011;8103;51.340;12.326;2024-03-08T11:09:35;20.92;;;15.60;;
15996;SDS011;8103;51.340;12.326;2024-03-08T11:14:57;16.20;;;14.68;;
15996;SDS011;8103;51.340;12.326;2024-03-08T11:19:57;16.88;;;14.85;;
15996;SDS011;8103;51.340;12.326;2024-03-08T11:22:34;18.17;;;16.23;;
15996;SDS011;8103;51.340;12.326;2024-03-08T11:25:01;18.27;;;16.38;;
15996;SDS011;8103;51.340;12.326;2024-03-08T11:27:35;18.70;;;16.80;;
15996;SDS011;8103;51.340;12.326;2024-03-08T11:30:04;20.23;;;17.50;;
15996;SDS011;8103;51.340;12.326;2024-03-08T11:32:44;17.55;;;15.75;;
15996;SDS011;8103;51.340;12.326;2024-03-08T11:35:20;17.23;;;15.40;;
15996;SDS011;8103;51.340;12.326;2024-03-08T11:37:50;18.48;;;16.52;;
15996;SDS011;8103;51.340;12.326;2024-03-08T11:40:17;16.42;;;14.02;;
15996;SDS011;8103;51.340;12.326;2024-03-08T11:42:46;16.65;;;14.93;;
15996;SDS011;8103;51.340;12.326;2024-03-08T11:45:17;18.83;;;15.30;;
15996;SDS011;8103;51.340;12.326;2024-03-08T11:47:47;18.77;;;16.33;;
15996;SDS011;8103;51.340;12.326;2024-03-08T11:50:15;24.50;;;17.55;;
15996;SDS011;8103;51.340;12.326;2024-03-08T11:56:29;16.35;;;14.68;;
15996;SDS011;8103;51.340;12.326;2024-03-08T11:58:56;16.42;;;14.85;;
15996;SDS011;8103;51.340;12.326;2024-03-08T12:01:27;16.65;;;14.55;;
15996;SDS011;8103;51.340;12.326;2024-03-08T12:03:54;16.40;;;14.63;;
15996;SDS011;8103;51.340;12.326;2024-03-08T12:06:25;16.20;;;14.50;;
15996;SDS011;8103;51.340;12.326;2024-03-08T12:08:53;20.63;;;15.77;;
15996;SDS011;8103;51.340;12.326;2024-03-08T12:11:20;15.52;;;13.93;;
15996;SDS011;8103;51.340;12.326;2024-03-08T12:13:49;16.20;;;14.52;;
15996;SDS011;8103;51.340;12.326;2024-03-08T12:16:17;16.42;;;14.70;;
15996;SDS011;8103;51.340;12.326;2024-03-08T12:18:44;17.25;;;15.55;;
15996;SDS011;8103;51.340;12.326;2024-03-08T12:21:12;16.40;;;14.10;;
15996;SDS011;8103;51.340;12.326;2024-03-08T12:23:44;17.38;;;15.50;;
15996;SDS011;8103;51.340;12.326;2024-03-08T12:26:14;17.65;;;15.13;;
15996;SDS011;8103;51.340;12.326;2024-03-08T12:28:42;17.92;;;16.10;;
15996;SDS011;8103;51.340;12.326;2024-03-08T12:31:17;18.92;;;15.27;;
15996;SDS011;8103;51.340;12.326;2024-03-08T12:33:48;16.90;;;15.13;;
15996;SDS011;8103;51.340;12.326;2024-03-08T12:36:22;16.92;;;15.13;;
15996;SDS011;8103;51.340;12.326;2024-03-08T12:38:48;17.20;;;15.43;;
15996;SDS011;8103;51.340;12.326;2024-03-08T12:41:16;17.30;;;15.50;;
15996;SDS011;8103;51.340;12.326;2024-03-08T12:43:45;15.63;;;14.02;;
15996;SDS011;8103;51.340;12.326;2024-03-08T12:46:16;17.92;;;15.23;;
15996;SDS011;8103;51.340;12.326;2024-03-08T12:48:47;17.27;;;15.60;;
15996;SDS011;8103;51.340;12.326;2024-03-08T12:51:14;18.02;;;16.23;;
15996;SDS011;8103;51.340;12.326;2024-03-08T12:53:42;16.70;;;14.98;;
15996;SDS011;8103;51.340;12.326;2024-03-08T12:56:13;17.25;;;15.35;;
15996;SDS011;8103;51.340;12.326;2024-03-08T12:58:45;16.38;;;14.68;;
15996;SDS011;8103;51.340;12.326;2024-03-08T13:01:12;16.77;;;15.15;;
15996;SDS011;8103;51.340;12.326;2024-03-08T13:03:39;15.63;;;14.02;;
15996;SDS011;8103;51.340;12.326;2024-03-08T13:06:06;16.65;;;15.05;;
15996;SDS011;8103;51.340;12.326;2024-03-08T13:08:35;16.23;;;14.52;;
15996;SDS011;8103;51.340;12.326;2024-03-08T13:11:05;17.85;;;15.57;;
15996;SDS011;8103;51.340;12.326;2024-03-08T13:13:40;16.52;;;14.85;;
15996;SDS011;8103;51.340;12.326;2024-03-08T13:16:07;14.45;;;13.02;;
15996;SDS011;8103;51.340;12.326;2024-03-08T13:18:35;18.00;;;16.10;;
15996;SDS011;8103;51.340;12.326;2024-03-08T13:21:02;17.30;;;15.18;;
15996;SDS011;8103;51.340;12.326;2024-03-08T13:23:33;17.70;;;15.85;;
15996;SDS011;8103;51.340;12.326;2024-03-08T13:26:07;20.50;;;17.90;;
15996;SDS011;8103;51.340;12.326;2024-03-08T13:28:34;20.10;;;17.95;;
15996;SDS011;8103;51.340;12.326;2024-03-08T13:31:04;17.30;;;15.32;;
15996;SDS011;8103;51.340;12.326;2024-03-08T13:33:37;17.48;;;15.77;;
15996;SDS011;8103;51.340;12.326;2024-03-08T13:36:05;17.60;;;15.77;;
15996;SDS011;8103;51.340;12.326;2024-03-08T13:38:35;17.27;;;15.57;;
15996;SDS011;8103;51.340;12.326;2024-03-08T13:41:02;20.02;;;17.42;;
15996;SDS011;8103;51.340;12.326;2024-03-08T13:43:30;17.77;;;15.95;;
15996;SDS011;8103;51.340;12.326;2024-03-08T13:46:00;20.52;;;17.15;;
15996;SDS011;8103;51.340;12.326;2024-03-08T13:48:27;18.92;;;16.92;;
15996;SDS011;8103;51.340;12.326;2024-03-08T13:50:55;20.98;;;18.80;;
15996;SDS011;8103;51.340;12.326;2024-03-08T13:53:23;20.90;;;16.65;;
15996;SDS011;8103;51.340;12.326;2024-03-08T13:55:50;18.92;;;16.98;;
15996;SDS011;8103;51.340;12.326;2024-03-08T13:58:17;17.15;;;15.40;;
15996;SDS011;8103;51.340;12.326;2024-03-08T14:04:25;18.35;;;15.68;;
15996;SDS011;8103;51.340;12.326;2024-03-08T14:10:40;17.15;;;15.27;;
15996;SDS011;8103;51.340;12.326;2024-03-08T14:13:08;16.33;;;14.57;;
15996;SDS011;8103;51.340;12.326;2024-03-08T14:15:35;17.80;;;15.93;;
15996;SDS011;8103;51.340;12.326;2024-03-08T14:18:02;18.77;;;16.77;;
15996;SDS011;8103;51.340;12.326;2024-03-08T14:20:29;18.42;;;16.63;;
15996;SDS011;8103;51.340;12.326;2024-03-08T14:22:56;18.10;;;16.17;;
15996;SDS011;8103;51.340;12.326;2024-03-08T14:25:23;18.58;;;16.63;;
15996;SDS011;8103;51.340;12.326;2024-03-08T14:27:51;17.42;;;15.57;;
15996;SDS011;8103;51.340;12.326;2024-03-08T14:30:24;18.15;;;16.35;;
15996;SDS011;8103;51.340;12.326;2024-03-08T14:33:02;16.92;;;14.73;;
15996;SDS011;8103;51.340;12.326;2024-03-08T14:35:29;20.02;;;17.65;;
15996;SDS011;8103;51.340;12.326;2024-03-08T14:37:56;17.30;;;15.48;;
15996;SDS011;8103;51.340;12.326;2024-03-08T14:40:24;17.85;;;16.05;;
15996;SDS011;8103;51.340;12.326;2024-03-08T14:42:52;19.25;;;17.15;;
15996;SDS011;8103;51.340;12.326;2024-03-08T14:45:19;23.00;;;18.55;;
15996;SDS011;8103;51.340;12.326;2024-03-08T14:47:47;20.58;;;16.90;;